createdAt,value
2019-05-05T15:32:01.031Z,71.17
2019-05-05T15:34:34.351Z,71.94
2019-05-05T15:37:09.781Z,72.74
2019-05-05T15:39:44.157Z,71.89
2019-05-05T15:42:33.512Z,73.58
2019-05-05T15:45:06.150Z,72.08
2019-05-05T15:47:37.835Z,71.85
2019-05-05T15:50:10.137Z,71.98
2019-05-05T15:52:43.913Z,71.73
2019-05-05T15:55:15.526Z,72.31
2019-05-05T15:57:48.681Z,72.31
2019-05-05T16:00:20.844Z,72.39
2019-05-05T16:02:54.728Z,72.84
2019-05-05T16:05:26.277Z,72.51
2019-05-05T16:07:58.427Z,72.44
2019-05-05T16:10:30.567Z,72.72
2019-05-05T16:13:04.469Z,69.51
2019-05-05T16:15:55.727Z,68.59
2019-05-05T16:18:48.664Z,69.15
2019-05-05T16:21:43.877Z,70.01
2019-05-05T16:24:19.733Z,69.36
2019-05-05T16:26:51.375Z,69.52
2019-05-05T16:29:24.057Z,69.50
2019-05-05T16:31:56.032Z,69.93
2019-05-05T16:34:28.104Z,68.60
2019-05-05T16:36:59.832Z,69.71
2019-05-05T16:39:33.550Z,69.76
2019-05-05T16:42:05.883Z,70.29
2019-05-05T16:44:38.618Z,69.85
2019-05-05T16:47:10.497Z,71.00
2019-05-05T16:49:44.517Z,70.18
2019-05-05T16:52:23.950Z,70.88
2019-05-05T16:55:23.933Z,68.56
2019-05-05T16:57:55.738Z,69.62
2019-05-05T17:00:27.527Z,70.30
2019-05-05T17:03:00.291Z,71.19
2019-05-05T17:05:34.478Z,71.75
2019-05-05T17:08:06.417Z,72.01
2019-05-05T17:10:39.020Z,72.01
2019-05-05T17:13:21.579Z,71.94
2019-05-05T17:16:01.661Z,72.35
2019-05-05T17:18:49.327Z,70.81
2019-05-05T17:21:29.954Z,72.75
2019-05-05T17:24:01.516Z,72.38
2019-05-05T17:26:35.456Z,71.35
2019-05-05T17:29:08.254Z,71.51
2019-05-05T17:31:40.108Z,71.76
2019-05-05T17:34:13.649Z,72.21
2019-05-05T17:36:46.950Z,72.27
2019-05-05T17:39:19.226Z,73.13
2019-05-05T17:42:14.203Z,72.50
2019-05-05T17:45:00.067Z,71.57
2019-05-05T17:47:39.242Z,70.59
2019-05-05T17:50:20.281Z,70.66
2019-05-05T17:53:02.461Z,71.64
2019-05-05T17:55:36.108Z,72.49
2019-05-05T17:58:07.939Z,71.94
2019-05-05T18:00:47.161Z,70.30
2019-05-05T18:03:20.889Z,71.48
2019-05-05T18:06:11.741Z,73.08
2019-05-05T18:08:50.536Z,73.10
2019-05-05T18:11:36.211Z,71.35
2019-05-05T18:14:14.498Z,72.57
2019-05-05T18:16:46.163Z,71.67
2019-05-05T18:19:17.727Z,72.00
2019-05-05T18:21:49.209Z,71.37
2019-05-05T18:24:20.872Z,70.90
2019-05-05T18:26:53.735Z,70.90
2019-05-05T18:29:25.832Z,70.15
2019-05-05T18:31:57.536Z,68.98
2019-05-05T18:34:29.766Z,70.07
2019-05-05T18:37:01.360Z,69.20
2019-05-05T18:39:34.408Z,69.53
2019-05-05T18:42:14.917Z,69.90
2019-05-05T18:44:48.797Z,68.75
2019-05-05T18:47:20.887Z,69.37
2019-05-05T18:49:53.960Z,70.35
2019-05-05T18:52:26.298Z,70.16
2019-05-05T18:54:57.902Z,70.07
2019-05-05T18:57:29.844Z,71.14
2019-05-05T19:00:03.797Z,71.30
2019-05-05T19:02:44.244Z,70.17
2019-05-05T19:05:37.042Z,70.55
2019-05-05T19:08:14.355Z,70.90
2019-05-05T19:10:45.893Z,71.36
2019-05-05T19:13:17.801Z,72.26
2019-05-05T19:15:50.124Z,71.67
2019-05-05T19:18:24.327Z,71.68
2019-05-05T19:21:03.673Z,72.09
2019-05-05T19:23:36.653Z,71.62
2019-05-05T19:26:08.158Z,71.92
2019-05-05T19:28:44.638Z,71.55
2019-05-05T19:31:14.290Z,70.87
2019-05-05T19:33:47.132Z,71.36
2019-05-05T19:36:18.928Z,71.24
2019-05-05T19:38:51.256Z,69.91
2019-05-05T19:41:23.820Z,70.18
2019-05-05T19:43:55.479Z,70.26
2019-05-05T19:46:47.273Z,69.92
2019-05-05T19:49:19.576Z,68.92
2019-05-05T19:51:51.262Z,69.68
2019-05-05T19:54:22.996Z,69.97
2019-05-05T19:56:54.820Z,69.67
2019-05-05T19:59:26.489Z,69.52
2019-05-05T20:01:58.231Z,69.60
2019-05-05T20:04:29.993Z,68.83
2019-05-05T20:07:01.636Z,69.18
2019-05-05T20:09:34.047Z,70.19
2019-05-05T20:12:07.265Z,66.37
2019-05-05T20:14:39.256Z,65.85
2019-05-05T20:17:19.048Z,66.13
2019-05-05T20:19:54.341Z,66.66
2019-05-05T20:22:25.989Z,66.14
2019-05-05T20:24:57.693Z,65.22
2019-05-05T20:27:30.203Z,65.58
2019-05-05T20:30:01.777Z,65.72
2019-05-05T20:32:40.614Z,66.18
2019-05-05T20:35:40.977Z,65.99
2019-05-05T20:38:33.214Z,66.21
2019-05-05T20:41:14.182Z,63.14
2019-05-05T20:43:45.783Z,63.28
2019-05-05T20:46:17.289Z,64.54
2019-05-05T20:48:49.260Z,63.65
2019-05-05T20:51:24.272Z,63.08
2019-05-05T20:53:55.986Z,61.90
2019-05-05T20:56:30.441Z,62.52
2019-05-05T20:59:02.109Z,63.08
2019-05-05T21:01:34.149Z,63.93
2019-05-05T21:04:06.544Z,64.32
2019-05-05T21:06:38.441Z,64.65
2019-05-05T21:09:10.056Z,65.51
2019-05-05T21:11:43.783Z,64.76
2019-05-05T21:14:15.815Z,64.06
2019-05-05T21:16:47.674Z,65.93
2019-05-05T21:19:20.851Z,65.25
2019-05-05T21:21:54.842Z,65.36
2019-05-05T21:24:26.685Z,64.79
2019-05-05T21:27:04.318Z,65.52
2019-05-05T21:29:41.916Z,64.82
2019-05-05T21:32:09.366Z,64.57
2019-05-05T21:34:41.222Z,63.56
2019-05-05T21:37:14.170Z,64.75
2019-05-05T21:39:46.398Z,65.32
2019-05-05T21:42:18.185Z,65.05
2019-05-05T21:44:50.398Z,66.56
2019-05-05T21:47:24.009Z,66.65
2019-05-05T21:49:55.742Z,67.12
2019-05-05T21:52:39.690Z,67.82
2019-05-05T21:55:20.028Z,68.54
2019-05-05T21:58:10.815Z,69.21
2019-05-05T22:01:01.261Z,69.28
2019-05-05T22:03:37.202Z,70.05
2019-05-05T22:06:08.893Z,70.08
2019-05-05T22:08:40.501Z,71.12
2019-05-05T22:11:14.224Z,71.32
2019-05-05T22:13:47.376Z,71.38
2019-05-05T22:16:20.403Z,71.99
2019-05-05T22:18:54.080Z,72.36
2019-05-05T22:21:47.918Z,72.17
2019-05-05T22:24:20.436Z,71.98
2019-05-05T22:26:54.198Z,72.31
2019-05-05T22:29:26.014Z,72.35
2019-05-05T22:31:58.313Z,72.47
2019-05-05T22:34:33.389Z,71.92
2019-05-05T22:37:08.924Z,72.14
2019-05-05T22:39:38.313Z,71.67
2019-05-05T22:42:09.995Z,71.96
2019-05-05T22:44:43.335Z,72.18
2019-05-05T22:47:15.023Z,72.18
2019-05-05T22:49:46.526Z,71.77
2019-05-05T22:52:18.276Z,71.88
2019-05-05T22:54:50.595Z,72.10
2019-05-05T22:57:22.163Z,72.02
2019-05-05T22:59:54.209Z,72.66
2019-05-05T23:02:29.576Z,72.56
2019-05-05T23:05:07.002Z,71.98
2019-05-05T23:07:41.152Z,71.76
2019-05-05T23:10:14.095Z,72.11
2019-05-05T23:12:45.800Z,72.50
2019-05-05T23:15:17.965Z,72.22
2019-05-05T23:18:04.285Z,73.02
2019-05-05T23:21:15.554Z,72.32
2019-05-05T23:24:14.314Z,72.48
2019-05-05T23:26:46.962Z,73.14
2019-05-05T23:29:18.792Z,72.87
2019-05-05T23:31:53.846Z,72.54
2019-05-05T23:34:25.590Z,72.39
2019-05-05T23:36:57.294Z,73.86
2019-05-05T23:39:28.957Z,72.77
2019-05-05T23:42:01.556Z,73.81
2019-05-05T23:44:34.533Z,72.89
2019-05-05T23:47:07.311Z,72.72
2019-05-05T23:49:38.988Z,73.04
2019-05-05T23:52:11.518Z,73.45
2019-05-05T23:54:44.709Z,73.54
2019-05-05T23:57:16.290Z,72.95
2019-05-05T23:59:48.987Z,72.32
